Time;durP1;ratioP1;P1;durP2;ratioP2;P2;SDS_P1;SDS_P2;PMS_P1;PMS_P2;Temp;Humidity;BMP_temperature;BMP_pressure;BME280_temperature;BME280_humidity;BME280_pressure;Samples;Min_cycle;Max_cycle;Signal;HPM_P1;HPM_P2
2021/11/04 00:01:08;;;;;;;17.55;9.13;;;11.20;99.90;;;;;;2583637;54;20030;31
2021/11/04 00:03:41;;;;;;;16.58;8.15;;;11.20;99.90;;;;;;2584189;46;21266;31
2021/11/04 00:06:12;;;;;;;17.45;9.50;;;11.20;99.90;;;;;;2584346;54;20026;31
2021/11/04 00:08:42;;;;;;;19.03;8.93;;;11.20;99.90;;;;;;2584389;54;20952;31
2021/11/04 00:11:15;;;;;;;15.95;9.50;;;11.10;99.90;;;;;;2584314;54;20914;31
2021/11/04 00:13:46;;;;;;;15.55;9.30;;;11.10;99.90;;;;;;2584848;47;20860;31
2021/11/04 00:16:16;;;;;;;18.40;9.90;;;11.10;99.90;;;;;;2584778;47;20083;31
2021/11/04 00:18:49;;;;;;;16.40;10.55;;;11.00;99.90;;;;;;2584453;54;20053;31
2021/11/04 00:21:21;;;;;;;20.50;9.45;;;11.00;99.90;;;;;;2584366;54;20057;31
2021/11/04 00:23:52;;;;;;;17.20;10.20;;;11.00;99.90;;;;;;2584416;54;21031;31
2021/11/04 00:26:21;;;;;;;20.40;10.55;;;10.90;99.90;;;;;;2584135;47;20988;31
2021/11/04 00:28:56;;;;;;;17.92;10.55;;;10.90;99.90;;;;;;2584032;54;21011;31
2021/11/04 00:31:27;;;;;;;18.05;10.65;;;10.90;99.90;;;;;;2584047;54;20033;31
2021/11/04 00:33:58;;;;;;;20.80;10.90;;;10.80;99.90;;;;;;2584711;47;20418;31
2021/11/04 00:36:29;;;;;;;18.58;10.18;;;10.80;99.90;;;;;;2583578;54;20038;31
2021/11/04 00:39:00;;;;;;;23.60;13.60;;;10.80;99.90;;;;;;2598663;39;20336;31
2021/11/04 00:41:32;;;;;;;17.45;11.40;;;10.70;99.90;;;;;;2584765;47;20034;31
2021/11/04 00:44:03;;;;;;;19.25;11.35;;;10.70;99.90;;;;;;2584208;54;20826;31
2021/11/04 00:46:32;;;;;;;20.10;11.70;;;10.70;99.90;;;;;;2584296;54;20042;31
2021/11/04 00:49:03;;;;;;;18.95;11.15;;;10.60;99.90;;;;;;2585367;47;20472;31
2021/11/04 00:51:34;;;;;;;19.05;11.40;;;10.60;99.90;;;;;;2585103;46;20781;31
2021/11/04 00:54:05;;;;;;;18.57;11.13;;;10.60;99.90;;;;;;2585413;46;20037;31
2021/11/04 00:56:35;;;;;;;16.50;11.07;;;10.60;99.90;;;;;;2585546;46;20938;31
2021/11/04 00:59:04;;;;;;;19.63;12.02;;;10.60;99.90;;;;;;2584987;54;20422;31
2021/11/04 01:01:32;;;;;;;19.50;12.10;;;10.60;99.90;;;;;;2584302;54;20948;31
2021/11/04 01:04:02;;;;;;;20.30;13.35;;;10.50;99.90;;;;;;2584569;46;21054;31
2021/11/04 01:06:33;;;;;;;22.90;13.10;;;10.50;99.90;;;;;;2584599;46;20122;31
2021/11/04 01:09:01;;;;;;;21.13;13.73;;;10.50;99.90;;;;;;2584482;46;21136;31
2021/11/04 01:11:32;;;;;;;22.20;14.65;;;10.50;99.90;;;;;;2584018;54;20030;31
2021/11/04 01:14:02;;;;;;;25.03;14.50;;;10.40;99.90;;;;;;2585102;54;20067;31
2021/11/04 01:16:32;;;;;;;24.50;14.57;;;10.40;99.90;;;;;;2585403;46;20246;31
2021/11/04 01:19:05;;;;;;;24.50;14.00;;;10.40;99.90;;;;;;2585163;46;20032;31
2021/11/04 01:21:33;;;;;;;24.00;15.10;;;10.40;99.90;;;;;;2585296;46;20959;31
2021/11/04 01:24:02;;;;;;;21.23;14.05;;;10.40;99.90;;;;;;2585303;46;21012;31
2021/11/04 01:26:33;;;;;;;23.10;14.73;;;10.30;99.90;;;;;;2584687;54;20037;31
2021/11/04 01:29:03;;;;;;;23.27;14.57;;;10.30;99.90;;;;;;2584629;54;21134;31
2021/11/04 01:31:35;;;;;;;22.75;13.80;;;10.30;99.90;;;;;;2584597;54;20933;31
2021/11/04 01:34:03;;;;;;;22.95;13.90;;;10.20;99.90;;;;;;2584704;54;20093;31
2021/11/04 01:36:34;;;;;;;22.75;13.82;;;10.20;99.90;;;;;;2583862;54;20925;31
2021/11/04 01:39:03;;;;;;;20.77;13.80;;;10.20;99.90;;;;;;2584022;54;20944;31
2021/11/04 01:41:32;;;;;;;20.80;13.57;;;10.20;99.90;;;;;;2584025;54;20052;31
2021/11/04 01:44:02;;;;;;;21.70;14.20;;;10.20;99.90;;;;;;2585119;46;19934;31
2021/11/04 01:46:31;;;;;;;21.13;13.55;;;10.20;99.90;;;;;;2584511;54;20030;31
2021/11/04 01:49:00;;;;;;;23.55;14.20;;;10.30;99.90;;;;;;2585086;46;20776;31
2021/11/04 01:51:31;;;;;;;23.63;14.57;;;10.20;99.90;;;;;;2584630;54;20872;31
2021/11/04 01:54:00;;;;;;;22.33;15.30;;;10.30;99.90;;;;;;2584571;54;20088;31
2021/11/04 01:56:36;;;;;;;23.85;14.60;;;10.20;99.90;;;;;;2585152;46;20086;31
2021/11/04 01:59:09;;;;;;;22.50;14.20;;;10.20;99.90;;;;;;2585054;46;20042;31
2021/11/04 02:01:41;;;;;;;22.90;14.65;;;10.20;99.90;;;;;;2584488;54;20054;31
2021/11/04 02:04:16;;;;;;;21.07;14.87;;;10.20;99.90;;;;;;2585085;46;20958;31
2021/11/04 02:06:48;;;;;;;23.37;14.90;;;10.20;99.90;;;;;;2584939;46;20038;31
2021/11/04 02:09:26;;;;;;;24.80;17.10;;;10.20;99.90;;;;;;2585030;46;20031;31
2021/11/04 02:12:17;;;;;;;21.45;14.90;;;10.20;99.90;;;;;;2585048;46;20314;31
2021/11/04 02:14:51;;;;;;;23.13;14.23;;;10.20;99.90;;;;;;2584472;54;20924;31
2021/11/04 02:17:23;;;;;;;25.53;15.97;;;10.20;99.90;;;;;;2585170;46;20817;31
2021/11/04 02:19:55;;;;;;;23.10;15.63;;;10.20;99.90;;;;;;2584606;54;20030;31
2021/11/04 02:22:37;;;;;;;21.90;15.40;;;10.20;99.90;;;;;;2584387;54;21225;31
2021/11/04 02:25:26;;;;;;;25.60;15.90;;;10.10;99.90;;;;;;2585003;46;21335;31
2021/11/04 02:27:58;;;;;;;22.70;16.15;;;10.10;99.90;;;;;;2584497;54;20037;31
2021/11/04 02:30:29;;;;;;;23.50;15.77;;;10.10;99.90;;;;;;2585122;46;20895;31
2021/11/04 02:33:02;;;;;;;23.90;15.45;;;10.20;99.90;;;;;;2584530;54;20801;31
2021/11/04 02:35:30;;;;;;;23.60;15.30;;;10.10;99.90;;;;;;2585029;46;20998;31
2021/11/04 02:38:02;;;;;;;20.30;15.02;;;10.10;99.90;;;;;;2585008;46;20026;31
2021/11/04 02:40:34;;;;;;;26.90;17.10;;;10.10;99.90;;;;;;2584527;54;20034;31
2021/11/04 02:43:06;;;;;;;23.85;15.35;;;10.10;99.90;;;;;;2585070;46;20776;31
2021/11/04 02:45:39;;;;;;;24.85;15.85;;;10.10;99.90;;;;;;2584491;54;20031;31
2021/11/04 02:48:09;;;;;;;21.73;14.57;;;10.00;99.90;;;;;;2585064;46;20913;31
2021/11/04 02:50:39;;;;;;;26.03;16.43;;;10.00;99.90;;;;;;2584597;54;20987;31
2021/11/04 02:53:14;;;;;;;22.35;15.02;;;10.00;99.90;;;;;;2585072;46;20940;31
2021/11/04 02:55:45;;;;;;;22.25;15.10;;;10.00;99.90;;;;;;2584928;46;20033;31
2021/11/04 02:58:19;;;;;;;24.13;16.85;;;10.00;99.90;;;;;;2584659;54;20026;31
2021/11/04 03:00:54;;;;;;;24.50;16.30;;;9.90;99.90;;;;;;2584624;54;20851;31
2021/11/04 03:03:29;;;;;;;22.60;16.20;;;10.00;99.90;;;;;;2584372;54;20101;31
2021/11/04 03:05:57;;;;;;;23.23;16.83;;;9.90;99.90;;;;;;2585045;46;20906;31
2021/11/04 03:08:27;;;;;;;27.35;16.52;;;9.90;99.90;;;;;;2584866;46;20027;31
2021/11/04 03:10:59;;;;;;;25.97;17.10;;;9.90;99.90;;;;;;2584574;46;20030;31
2021/11/04 03:13:32;;;;;;;26.15;17.35;;;9.90;99.90;;;;;;2584609;54;20883;31
2021/11/04 03:16:01;;;;;;;25.75;16.40;;;9.80;99.90;;;;;;2584972;46;20931;31
2021/11/04 03:18:30;;;;;;;22.55;16.58;;;9.80;99.90;;;;;;2585031;46;20034;31
2021/11/04 03:21:01;;;;;;;29.45;18.13;;;9.90;99.90;;;;;;2585014;46;20031;31
2021/11/04 03:23:31;;;;;;;25.75;17.15;;;9.80;99.90;;;;;;2585032;46;20910;31
2021/11/04 03:26:02;;;;;;;26.23;17.20;;;9.90;99.90;;;;;;2584331;54;20030;31
2021/11/04 03:28:33;;;;;;;22.73;16.13;;;9.90;99.90;;;;;;2584682;54;21006;31
2021/11/04 03:31:05;;;;;;;24.87;16.67;;;9.90;99.90;;;;;;2584516;54;20942;31
2021/11/04 03:33:36;;;;;;;22.73;15.93;;;9.90;99.90;;;;;;2584445;54;20030;31
2021/11/04 03:36:05;;;;;;;26.27;16.87;;;9.90;99.90;;;;;;2584431;54;20030;31
2021/11/04 03:38:37;;;;;;;24.47;17.60;;;9.90;99.90;;;;;;2585065;46;21237;31
2021/11/04 03:41:08;;;;;;;25.55;18.55;;;9.90;99.90;;;;;;2584683;54;20475;31
2021/11/04 03:43:40;;;;;;;24.23;17.42;;;9.90;99.90;;;;;;2584272;54;20030;31
2021/11/04 03:46:10;;;;;;;24.60;16.85;;;10.00;99.90;;;;;;2584535;54;20030;31
2021/11/04 03:48:42;;;;;;;22.90;18.40;;;9.90;99.90;;;;;;2583864;54;20030;31
2021/11/04 03:51:11;;;;;;;23.60;17.03;;;9.90;99.90;;;;;;2584372;54;20333;31
2021/11/04 03:53:43;;;;;;;24.55;16.73;;;9.90;99.90;;;;;;2584821;46;20027;31
2021/11/04 03:56:14;;;;;;;23.05;17.65;;;10.00;99.90;;;;;;2584919;46;20944;31
2021/11/04 09:19:37;;;;;;;18.02;12.77;;;11.20;99.90;;;;;;2584735;54;20856;31
2021/11/04 09:22:22;;;;;;;17.47;12.83;;;11.20;99.90;;;;;;2585441;46;20883;31
2021/11/04 09:24:56;;;;;;;17.77;13.18;;;11.20;99.90;;;;;;2584984;46;20844;31
2021/11/04 09:27:30;;;;;;;20.70;13.25;;;11.10;99.90;;;;;;2585313;54;20923;31
2021/11/04 09:30:00;;;;;;;18.42;13.30;;;11.20;99.90;;;;;;2585877;46;20986;31
2021/11/04 09:32:39;;;;;;;17.27;12.80;;;11.20;99.90;;;;;;2585653;46;20034;31
2021/11/04 09:35:14;;;;;;;17.33;13.43;;;11.10;99.90;;;;;;2584931;46;21058;31
2021/11/04 09:38:17;;;;;;;21.10;12.65;;;11.10;99.90;;;;;;2585246;54;20865;31
2021/11/04 09:41:21;;;;;;;17.25;12.40;;;11.20;99.90;;;;;;2584997;54;20938;31
2021/11/04 09:44:17;;;;;;;19.70;14.27;;;11.10;99.90;;;;;;2585029;54;20065;31
2021/11/04 09:47:06;;;;;;;17.05;13.57;;;11.10;99.90;;;;;;2585050;54;20023;31
2021/11/04 09:50:29;;;;;;;20.30;13.20;;;11.10;99.90;;;;;;2585231;54;21457;31
2021/11/04 09:53:06;;;;;;;19.30;14.55;;;11.10;99.90;;;;;;2585773;46;22188;31
2021/11/04 09:55:37;;;;;;;22.03;14.27;;;11.20;99.90;;;;;;2585574;46;20913;31
2021/11/04 09:58:49;;;;;;;21.20;13.50;;;11.20;99.90;;;;;;2585622;46;20931;31
2021/11/04 10:01:48;;;;;;;17.10;12.90;;;11.20;99.90;;;;;;2682836;39;21539;31
2021/11/04 10:04:45;;;;;;;18.75;12.65;;;11.30;99.90;;;;;;2585160;54;20980;31
2021/11/04 10:11:16;;;;;;;19.20;13.00;;;11.30;99.90;;;;;;2581897;54;20014;31
2021/11/04 10:14:40;;;;;;;19.30;12.13;;;11.40;99.90;;;;;;2584834;54;20077;31
2021/11/04 10:46:40;;;;;;;12.88;9.30;;;12.10;99.90;;;;;;2631596;54;20982;-91
2021/11/04 10:49:48;;;;;;;12.40;9.10;;;12.20;99.90;;;;;;2583969;54;20068;31
2021/11/04 10:52:23;;;;;;;13.63;9.38;;;12.40;99.90;;;;;;2585063;46;21661;31
2021/11/04 10:54:58;;;;;;;;;;;12.50;99.90;;;;;;2584095;54;20030;31
2021/11/04 10:57:43;;;;;;;14.35;9.05;;;12.60;99.90;;;;;;2585005;54;19973;31
2021/11/04 11:00:21;;;;;;;15.90;10.40;;;12.70;99.90;;;;;;2585312;54;20073;31
2021/11/04 11:03:22;;;;;;;15.30;10.35;;;12.80;99.90;;;;;;2585649;46;21490;31
2021/11/04 11:06:39;;;;;;;14.75;10.02;;;12.90;99.90;;;;;;2585756;46;20100;31
2021/11/04 11:09:38;;;;;;;14.70;10.75;;;13.00;99.90;;;;;;2585442;46;20022;31
2021/11/04 11:12:14;;;;;;;14.90;12.05;;;13.10;99.90;;;;;;2585822;46;20135;31
2021/11/04 11:17:52;;;;;;;17.00;13.20;;;13.30;99.90;;;;;;2585096;54;20035;31
2021/11/04 11:21:07;;;;;;;14.57;11.02;;;13.30;99.90;;;;;;2585539;46;20942;31
2021/11/04 11:23:42;;;;;;;18.57;11.90;;;13.40;99.90;;;;;;2585165;54;20970;31
2021/11/04 11:26:15;;;;;;;14.85;11.10;;;13.50;99.90;;;;;;2584760;54;20427;31
2021/11/04 11:29:00;;;;;;;14.02;11.13;;;13.60;99.90;;;;;;2585642;46;20090;31
2021/11/04 11:31:37;;;;;;;13.93;9.40;;;13.70;99.90;;;;;;2585782;46;21126;31
2021/11/04 11:34:18;;;;;;;11.18;8.13;;;13.80;99.90;;;;;;2585097;54;20030;31
2021/11/04 11:37:18;;;;;;;11.20;7.65;;;14.10;99.90;;;;;;2683270;39;22512;31
2021/11/04 11:40:16;;;;;;;8.88;6.20;;;14.10;99.90;;;;;;2585775;47;20963;31
2021/11/04 11:43:00;;;;;;;11.13;6.57;;;14.20;99.90;;;;;;2585557;46;20078;31
2021/11/04 11:45:34;;;;;;;9.48;6.00;;;14.30;99.90;;;;;;2683227;39;22354;31
2021/11/04 11:48:26;;;;;;;8.30;6.55;;;14.40;99.90;;;;;;2585672;46;20033;31
2021/11/04 11:51:00;;;;;;;7.47;5.55;;;14.30;99.90;;;;;;2585806;47;21167;31
2021/11/04 11:53:37;;;;;;;11.60;6.20;;;14.30;99.90;;;;;;2585706;47;20030;31
2021/11/04 11:56:24;;;;;;;6.17;4.63;;;14.30;99.90;;;;;;2584304;54;20050;31
2021/11/04 11:59:42;;;;;;;;;;;14.30;99.90;;;;;;2585898;47;20922;31
2021/11/04 12:02:53;;;;;;;1.50;0.80;;;14.20;99.90;;;;;;2584993;54;19934;31
2021/11/04 12:05:42;;;;;;;0.70;0.55;;;14.00;99.90;;;;;;2584840;54;20941;31
2021/11/04 12:08:13;;;;;;;1.65;0.75;;;13.80;99.90;;;;;;2585600;47;20027;31
2021/11/04 12:10:47;;;;;;;1.00;0.57;;;13.70;99.90;;;;;;2585116;54;20061;31
2021/11/04 12:13:48;;;;;;;3.50;0.50;;;13.60;99.90;;;;;;2585605;47;20967;31
2021/11/04 12:16:39;;;;;;;1.43;0.73;;;13.50;99.90;;;;;;2585497;47;20026;31
2021/11/04 12:19:13;;;;;;;1.67;0.80;;;13.50;99.90;;;;;;2584380;54;21164;31
2021/11/04 12:21:49;;;;;;;1.80;0.70;;;13.50;99.90;;;;;;2585993;47;20902;31
2021/11/04 12:24:20;;;;;;;1.20;0.60;;;13.50;99.90;;;;;;2586317;46;20715;31
2021/11/04 12:26:52;;;;;;;0.90;0.55;;;13.50;99.90;;;;;;2585608;46;21282;31
2021/11/04 12:29:29;;;;;;;0.90;0.50;;;13.40;99.90;;;;;;2585606;46;20088;31
2021/11/04 12:32:10;;;;;;;3.08;0.52;;;13.30;99.90;;;;;;2585612;46;20283;31
2021/11/04 12:34:43;;;;;;;1.42;0.88;;;13.20;99.90;;;;;;2585077;54;20855;31
2021/11/04 12:37:18;;;;;;;2.78;0.95;;;13.10;99.90;;;;;;2585618;54;19935;31
2021/11/04 12:39:56;;;;;;;1.50;0.77;;;13.10;99.90;;;;;;2584822;54;20030;31
2021/11/04 12:42:45;;;;;;;1.20;0.90;;;13.00;99.90;;;;;;2586120;46;20105;31
2021/11/04 12:45:25;;;;;;;3.50;0.93;;;12.90;99.90;;;;;;2586216;46;20086;31
2021/11/04 12:48:06;;;;;;;1.60;1.00;;;12.90;99.90;;;;;;2586110;46;20934;31
2021/11/04 12:50:44;;;;;;;1.63;0.90;;;12.90;99.90;;;;;;2585479;54;20300;31
2021/11/04 12:54:17;;;;;;;3.00;0.60;;;12.80;99.90;;;;;;2586108;46;20049;31
2021/11/04 12:57:09;;;;;;;2.45;0.60;;;12.80;99.90;;;;;;2585603;54;20065;31
2021/11/04 13:00:04;;;;;;;2.85;0.80;;;12.70;99.90;;;;;;2586174;46;20960;31
2021/11/04 13:02:37;;;;;;;3.10;0.60;;;12.60;99.90;;;;;;2586075;46;20936;31
2021/11/04 13:05:25;;;;;;;1.90;0.60;;;12.50;99.90;;;;;;2586099;46;20030;31
2021/11/04 13:08:07;;;;;;;1.75;0.75;;;12.50;99.90;;;;;;2585975;46;20056;31
2021/11/04 13:11:16;;;;;;;1.75;0.70;;;12.40;99.90;;;;;;2585865;46;20948;31
2021/11/04 13:14:01;;;;;;;1.37;0.77;;;12.40;99.90;;;;;;2585958;46;21352;31
2021/11/04 13:16:31;;;;;;;2.50;0.53;;;12.40;99.90;;;;;;2584631;54;20043;31
2021/11/04 13:19:05;;;;;;;2.53;0.60;;;12.20;99.90;;;;;;2585781;46;20027;31
2021/11/04 13:21:37;;;;;;;4.45;0.52;;;12.10;99.90;;;;;;2585094;54;20026;31
2021/11/04 13:24:16;;;;;;;2.40;1.58;;;12.00;99.90;;;;;;2585010;46;20922;31
2021/11/04 13:26:50;;;;;;;2.42;0.60;;;12.00;99.90;;;;;;2584526;54;20030;31
2021/11/04 13:29:30;;;;;;;1.60;0.60;;;12.00;99.90;;;;;;2585899;46;20048;31
2021/11/04 13:32:09;;;;;;;1.30;0.70;;;12.00;99.90;;;;;;2585065;54;20852;31
2021/11/04 13:34:43;;;;;;;1.70;0.60;;;11.80;99.90;;;;;;2585019;54;20818;31
2021/11/04 13:37:43;;;;;;;1.70;0.70;;;11.90;99.90;;;;;;2585783;46;20038;31
2021/11/04 13:40:14;;;;;;;2.72;0.90;;;11.80;99.90;;;;;;2585751;46;20904;31
2021/11/04 13:42:49;;;;;;;1.65;0.50;;;11.70;99.90;;;;;;2585546;46;20880;31
2021/11/04 13:45:20;;;;;;;1.42;0.60;;;11.70;99.90;;;;;;2585615;46;20026;31
2021/11/04 13:47:50;;;;;;;3.07;1.00;;;11.60;99.90;;;;;;2585731;46;20026;31
2021/11/04 13:50:40;;;;;;;1.97;0.70;;;11.60;99.90;;;;;;2585615;46;20022;31
2021/11/04 13:53:16;;;;;;;4.30;0.60;;;11.50;99.90;;;;;;2584514;54;21002;31
2021/11/04 13:55:49;;;;;;;1.40;0.40;;;11.50;99.90;;;;;;2584963;54;20843;31
2021/11/04 13:58:42;;;;;;;1.43;0.40;;;11.40;99.90;;;;;;2585662;46;20952;31
2021/11/04 14:01:19;;;;;;;1.83;0.90;;;11.40;99.90;;;;;;2585300;46;20030;31
2021/11/04 14:04:09;;;;;;;1.70;0.57;;;11.30;99.90;;;;;;2585406;46;20912;31
2021/11/04 14:06:46;;;;;;;7.82;0.50;;;11.30;99.90;;;;;;2585081;54;20053;31
2021/11/04 14:09:38;;;;;;;1.20;0.60;;;11.20;99.90;;;;;;2585447;46;20097;31
2021/11/04 14:12:28;;;;;;;2.70;0.67;;;11.20;99.90;;;;;;2584878;47;20080;31
2021/11/04 14:15:09;;;;;;;1.40;0.40;;;11.20;99.90;;;;;;2585431;46;20030;31
2021/11/04 14:18:20;;;;;;;3.33;0.70;;;11.10;99.90;;;;;;2585413;46;20089;31
2021/11/04 14:21:35;;;;;;;1.90;0.95;;;11.10;99.90;;;;;;2683727;39;21014;31
2021/11/04 14:24:07;;;;;;;0.95;0.60;;;11.00;99.90;;;;;;2585192;46;20046;31
2021/11/04 14:26:37;;;;;;;2.17;0.70;;;11.00;99.90;;;;;;2585453;46;20922;31
2021/11/04 14:29:09;;;;;;;1.60;0.50;;;11.00;99.90;;;;;;2585492;46;20780;31
2021/11/04 14:31:39;;;;;;;1.00;0.50;;;11.00;99.90;;;;;;2584982;54;20884;31
2021/11/04 14:34:10;;;;;;;3.25;0.80;;;10.90;99.90;;;;;;2664418;39;21473;31
2021/11/04 14:36:41;;;;;;;1.80;0.90;;;10.90;99.90;;;;;;2585260;46;21578;31
2021/11/04 14:39:12;;;;;;;2.63;1.10;;;10.90;99.90;;;;;;2585420;46;20986;31
2021/11/04 14:41:41;;;;;;;2.50;1.23;;;10.80;99.90;;;;;;2584775;54;20941;31
2021/11/04 14:44:12;;;;;;;2.20;1.20;;;10.90;99.90;;;;;;2584878;46;20030;31
2021/11/04 14:46:41;;;;;;;2.33;1.37;;;10.80;99.90;;;;;;2584846;54;20242;31
2021/11/04 14:49:14;;;;;;;4.20;2.40;;;10.80;99.90;;;;;;2584845;54;20328;31
2021/11/04 14:51:45;;;;;;;3.70;1.60;;;10.80;99.90;;;;;;2753860;31;21500;31
2021/11/04 14:54:15;;;;;;;1.20;0.70;;;10.80;99.90;;;;;;2584890;54;21028;31
2021/11/04 14:56:46;;;;;;;1.80;0.80;;;10.70;99.90;;;;;;2585221;46;20893;31
2021/11/04 14:59:20;;;;;;;2.05;0.82;;;10.80;99.90;;;;;;2584355;54;21922;31
2021/11/04 15:01:53;;;;;;;1.40;0.70;;;10.70;99.90;;;;;;2584747;54;20050;31
2021/11/04 15:04:25;;;;;;;1.58;0.63;;;10.70;99.90;;;;;;2585217;46;20055;31
2021/11/04 15:06:56;;;;;;;2.30;0.60;;;10.70;99.90;;;;;;2585310;46;20844;31
2021/11/04 15:09:25;;;;;;;1.15;0.60;;;10.60;99.90;;;;;;2584832;54;20834;31
2021/11/04 15:11:55;;;;;;;1.00;0.55;;;10.60;99.90;;;;;;2649158;39;21001;31
2021/11/04 15:14:26;;;;;;;1.60;0.75;;;10.60;99.90;;;;;;2585236;46;20101;31
2021/11/04 15:16:57;;;;;;;4.90;2.35;;;10.50;99.90;;;;;;2584772;54;20740;31
2021/11/04 15:19:28;;;;;;;1.43;0.70;;;10.50;99.90;;;;;;2584579;54;20038;31
2021/11/04 15:21:58;;;;;;;1.52;0.68;;;10.40;99.90;;;;;;2584630;54;21346;31
2021/11/04 15:24:29;;;;;;;2.95;0.80;;;10.50;99.90;;;;;;2584636;54;20936;31
2021/11/04 15:27:00;;;;;;;1.10;0.55;;;10.40;99.90;;;;;;2585146;46;20861;31
2021/11/04 15:29:32;;;;;;;1.30;0.57;;;10.40;99.90;;;;;;2585239;46;20441;31
2021/11/04 15:32:04;;;;;;;0.85;0.50;;;10.30;99.90;;;;;;2584744;54;20037;31
2021/11/04 15:34:36;;;;;;;1.35;0.60;;;10.30;99.90;;;;;;2584670;54;20761;31
2021/11/04 15:37:07;;;;;;;2.08;0.77;;;10.30;99.90;;;;;;2584964;46;20880;31
2021/11/04 15:39:37;;;;;;;1.83;0.80;;;10.20;99.90;;;;;;2585014;46;20085;31
2021/11/04 15:44:54;;;;;;;2.63;1.00;;;10.20;99.90;;;;;;2584923;46;20963;31
2021/11/04 15:47:23;;;;;;;1.83;0.70;;;10.20;99.90;;;;;;2584948;46;20039;31
2021/11/04 15:49:52;;;;;;;1.75;0.80;;;10.20;99.90;;;;;;2584868;46;20823;31
2021/11/04 15:52:21;;;;;;;3.17;0.70;;;10.20;99.90;;;;;;2584098;54;20058;31
2021/11/04 15:54:49;;;;;;;1.70;0.57;;;10.20;99.90;;;;;;2584081;54;20985;31
2021/11/04 15:57:18;;;;;;;1.52;0.38;;;10.20;99.90;;;;;;2584724;47;20033;31
2021/11/04 15:59:49;;;;;;;1.10;0.50;;;10.20;99.90;;;;;;2585016;47;20977;31
2021/11/04 16:02:20;;;;;;;2.37;0.77;;;10.20;99.90;;;;;;2584889;47;20022;31
2021/11/04 16:04:50;;;;;;;1.23;0.60;;;10.20;99.90;;;;;;2584146;54;20938;31
2021/11/04 16:07:22;;;;;;;1.03;0.50;;;10.20;99.90;;;;;;2584821;47;20805;31
2021/11/04 16:09:58;;;;;;;0.60;0.30;;;10.20;99.90;;;;;;2584378;54;20030;31
2021/11/04 16:12:26;;;;;;;4.70;0.80;;;10.20;99.90;;;;;;2584739;47;21229;31
2021/11/04 16:14:56;;;;;;;1.20;0.60;;;10.20;99.90;;;;;;2584832;47;19935;31
2021/11/04 16:17:26;;;;;;;2.38;0.73;;;10.20;99.90;;;;;;2584075;54;20978;31
2021/11/04 16:20:00;;;;;;;0.98;0.50;;;10.30;99.90;;;;;;2584949;47;20943;31
2021/11/04 16:22:31;;;;;;;1.70;0.73;;;10.40;99.90;;;;;;2584642;54;20920;31
2021/11/04 16:25:00;;;;;;;2.53;0.57;;;10.30;99.90;;;;;;2584395;54;20885;31
2021/11/04 16:27:29;;;;;;;2.00;0.80;;;10.30;99.90;;;;;;2584783;47;20767;31
2021/11/04 16:29:57;;;;;;;1.80;0.80;;;10.30;99.90;;;;;;2584181;54;20033;31
2021/11/04 16:32:27;;;;;;;2.58;0.82;;;10.20;99.90;;;;;;2584696;47;20050;31
2021/11/04 16:34:56;;;;;;;1.33;0.70;;;10.30;99.90;;;;;;2584938;47;20022;31
2021/11/04 16:37:25;;;;;;;3.00;0.90;;;10.30;99.90;;;;;;2584177;54;20085;31
2021/11/04 16:39:53;;;;;;;2.43;1.23;;;10.30;99.90;;;;;;2584644;47;20065;31
2021/11/04 16:42:25;;;;;;;3.30;1.10;;;10.30;99.90;;;;;;2584402;54;20337;31
2021/11/04 16:44:53;;;;;;;2.17;0.90;;;10.30;99.90;;;;;;2584061;54;19938;31
2021/11/04 16:47:21;;;;;;;2.40;1.25;;;10.30;99.90;;;;;;2584170;54;20853;31
2021/11/04 16:49:50;;;;;;;3.00;0.90;;;10.30;99.90;;;;;;2584654;47;20875;31
2021/11/04 16:52:25;;;;;;;2.25;0.95;;;10.30;99.90;;;;;;2584843;47;21269;31
2021/11/04 16:54:54;;;;;;;4.37;1.30;;;10.10;99.90;;;;;;2583923;54;20023;31
2021/11/04 16:57:23;;;;;;;5.83;1.30;;;10.20;99.90;;;;;;2584477;47;20234;31
2021/11/04 16:59:52;;;;;;;4.65;1.02;;;10.20;99.90;;;;;;2584620;47;20886;31
2021/11/04 17:02:23;;;;;;;1.70;0.65;;;10.30;99.90;;;;;;2583976;54;20034;31
2021/11/04 17:04:51;;;;;;;2.30;0.80;;;10.30;99.90;;;;;;2584521;47;20956;31
2021/11/04 17:07:19;;;;;;;2.33;1.13;;;10.20;99.90;;;;;;2584312;54;20890;31
2021/11/04 17:09:48;;;;;;;2.60;0.80;;;10.30;99.90;;;;;;2584707;54;20030;31
2021/11/04 17:12:23;;;;;;;3.57;0.97;;;10.30;99.90;;;;;;2584888;54;20113;31
2021/11/04 17:14:54;;;;;;;1.67;0.75;;;10.30;99.90;;;;;;2585501;46;20814;31
2021/11/04 17:17:22;;;;;;;3.13;0.90;;;10.30;99.90;;;;;;2585522;46;20926;31
2021/11/04 17:19:53;;;;;;;2.50;1.00;;;10.30;99.90;;;;;;2585329;46;20904;31
2021/11/04 17:22:21;;;;;;;1.97;0.70;;;10.30;99.90;;;;;;2585113;54;20915;31
2021/11/04 17:24:49;;;;;;;2.10;0.85;;;10.20;99.90;;;;;;2584559;54;20037;31
2021/11/04 17:27:18;;;;;;;2.25;0.65;;;10.20;99.90;;;;;;2585343;46;20050;31
2021/11/04 17:29:46;;;;;;;2.15;0.75;;;10.20;99.90;;;;;;2585233;46;19935;31
2021/11/04 17:32:14;;;;;;;4.70;0.75;;;10.20;99.90;;;;;;2585378;46;20951;31
2021/11/04 17:34:43;;;;;;;2.90;0.80;;;10.20;99.90;;;;;;2584735;54;20057;31
2021/11/04 17:37:14;;;;;;;1.67;0.90;;;10.20;99.90;;;;;;2585549;46;20897;31
2021/11/04 17:39:42;;;;;;;2.45;0.80;;;10.20;99.90;;;;;;2585372;46;20921;31
2021/11/04 17:42:11;;;;;;;2.35;0.50;;;10.20;99.90;;;;;;2585180;46;20026;31
2021/11/04 17:44:39;;;;;;;3.50;0.90;;;10.20;99.90;;;;;;2585195;46;20049;31
2021/11/04 17:47:12;;;;;;;1.90;0.80;;;10.10;99.90;;;;;;2584598;54;19993;31
2021/11/04 17:49:44;;;;;;;3.20;1.45;;;10.10;99.90;;;;;;2584911;54;20034;31
2021/11/04 17:52:21;;;;;;;1.40;0.50;;;10.10;99.90;;;;;;2584965;54;20023;31
2021/11/04 17:54:51;;;;;;;1.80;0.80;;;10.10;99.90;;;;;;2585165;46;20097;31
2021/11/04 17:57:23;;;;;;;1.73;0.70;;;10.10;99.90;;;;;;2584694;54;20064;31
2021/11/04 17:59:56;;;;;;;3.73;1.30;;;10.10;99.90;;;;;;2584747;54;20955;31
2021/11/04 18:02:32;;;;;;;3.03;0.90;;;10.10;99.90;;;;;;2585405;46;20936;31
2021/11/04 18:05:10;;;;;;;3.53;0.60;;;10.10;99.90;;;;;;2584716;54;20894;31
2021/11/04 18:07:43;;;;;;;0.90;0.50;;;10.00;99.90;;;;;;2585483;46;20984;31
2021/11/04 18:10:14;;;;;;;1.45;0.90;;;10.00;99.90;;;;;;2584955;54;20057;31
2021/11/04 18:12:47;;;;;;;2.40;1.00;;;10.00;99.90;;;;;;2584908;54;20030;31
2021/11/04 18:15:23;;;;;;;2.20;1.00;;;10.00;99.90;;;;;;2585530;46;21096;31
2021/11/04 18:17:55;;;;;;;2.50;0.60;;;9.90;99.90;;;;;;2584809;54;20066;31
2021/11/04 18:20:26;;;;;;;1.52;0.65;;;9.90;99.90;;;;;;2585462;46;20046;31
2021/11/04 18:22:57;;;;;;;3.93;1.00;;;9.90;99.90;;;;;;2585275;46;20042;31
2021/11/04 18:25:27;;;;;;;2.60;0.80;;;9.80;99.90;;;;;;2584655;46;20321;31
2021/11/04 18:27:59;;;;;;;2.28;0.90;;;9.90;99.90;;;;;;2584631;46;20039;31
2021/11/04 18:30:30;;;;;;;1.67;0.73;;;9.90;99.90;;;;;;2584728;54;20997;31
2021/11/04 18:32:59;;;;;;;4.05;1.33;;;9.80;99.90;;;;;;2584609;46;20026;31
2021/11/04 18:35:29;;;;;;;2.30;0.70;;;9.80;99.90;;;;;;2584601;46;20938;31
2021/11/04 18:38:00;;;;;;;1.87;0.80;;;9.80;99.90;;;;;;2585354;46;20937;31
2021/11/04 18:40:34;;;;;;;2.25;0.60;;;9.70;99.90;;;;;;2584648;46;20859;31
2021/11/04 18:43:05;;;;;;;1.35;0.65;;;9.70;99.90;;;;;;2585214;46;20250;31
2021/11/04 18:45:40;;;;;;;1.60;0.60;;;9.70;99.90;;;;;;2585175;46;20089;31
2021/11/04 18:48:12;;;;;;;2.25;0.70;;;9.60;99.90;;;;;;2585156;46;20084;31
2021/11/04 18:50:43;;;;;;;1.40;0.50;;;9.60;99.90;;;;;;2585225;46;20027;31
2021/11/04 18:53:15;;;;;;;1.30;0.50;;;9.50;99.90;;;;;;2585258;46;20086;31
2021/11/04 18:55:44;;;;;;;2.47;0.75;;;9.50;99.90;;;;;;2584563;46;20920;31
2021/11/04 18:58:19;;;;;;;1.60;0.50;;;9.50;99.90;;;;;;2584505;46;20034;31
2021/11/04 19:00:48;;;;;;;1.08;0.60;;;9.40;99.90;;;;;;2584528;46;20762;31
2021/11/04 19:03:20;;;;;;;1.15;0.40;;;9.40;99.90;;;;;;2585120;46;20061;31
2021/11/04 19:05:52;;;;;;;1.13;0.60;;;9.40;99.90;;;;;;2585011;46;20772;31
2021/11/04 19:08:22;;;;;;;2.40;1.08;;;9.50;99.90;;;;;;2584574;46;20026;31
2021/11/04 19:11:01;;;;;;;2.35;0.90;;;9.40;99.90;;;;;;2583897;54;20038;31
2021/11/04 19:13:31;;;;;;;2.50;0.80;;;9.30;99.90;;;;;;2584476;46;20109;31
2021/11/04 19:16:01;;;;;;;3.45;1.08;;;9.30;99.90;;;;;;2585090;46;20164;31
2021/11/04 19:18:34;;;;;;;1.90;0.80;;;9.30;99.90;;;;;;2585218;46;20026;31
2021/11/04 19:21:14;;;;;;;2.03;0.90;;;9.30;99.90;;;;;;2585327;46;21012;31
2021/11/04 19:23:48;;;;;;;5.60;0.93;;;9.30;99.90;;;;;;2585155;46;20898;31
2021/11/04 19:26:21;;;;;;;2.95;0.73;;;9.30;99.90;;;;;;2584975;46;20254;31
2021/11/04 19:28:53;;;;;;;3.75;0.95;;;9.30;99.90;;;;;;2584694;54;20965;31
2021/11/04 19:31:30;;;;;;;1.75;0.80;;;9.30;99.90;;;;;;2584847;46;20163;31
2021/11/04 19:34:06;;;;;;;3.35;0.70;;;9.40;99.90;;;;;;2585107;46;20030;31